sensor_id;sensor_type;location;lat;lon;timestamp;P1;P2;P0
70249;PMS5003;57644;48.416;-123.374;2022-08-19T00:00:33;7;7;
70249;PMS5003;57644;48.416;-123.374;2022-08-19T00:03:04;7;6;
70249;PMS5003;57644;48.416;-123.374;2022-08-19T00:05:34;8;8;
70249;PMS5003;57644;48.416;-123.374;2022-08-19T00:08:04;7;7;
70249;PMS5003;57644;48.416;-123.374;2022-08-19T00:10:35;7;7;
70249;PMS5003;57644;48.416;-123.374;2022-08-19T00:13:10;7;7;
70249;PMS5003;57644;48.416;-123.374;2022-08-19T00:15:36;8;8;
70249;PMS5003;57644;48.416;-123.374;2022-08-19T00:18:06;8;8;
70249;PMS5003;57644;48.416;-123.374;2022-08-19T00:20:36;8;8;
70249;PMS5003;57644;48.416;-123.374;2022-08-19T00:23:06;6;6;
70249;PMS5003;57644;48.416;-123.374;2022-08-19T00:25:37;8;7;
70249;PMS5003;57644;48.416;-123.374;2022-08-19T00:28:07;10;10;
70249;PMS5003;57644;48.416;-123.374;2022-08-19T00:30:37;8;8;
70249;PMS5003;57644;48.416;-123.374;2022-08-19T00:33:08;10;9;
70249;PMS5003;57644;48.416;-123.374;2022-08-19T00:35:39;11;11;
70249;PMS5003;57644;48.416;-123.374;2022-08-19T00:38:08;11;11;
70249;PMS5003;57644;48.416;-123.374;2022-08-19T00:40:39;13;13;
70249;PMS5003;57644;48.416;-123.374;2022-08-19T00:43:11;16;14;
70249;PMS5003;57644;48.416;-123.374;2022-08-19T00:45:39;17;14;
70249;PMS5003;57644;48.416;-123.374;2022-08-19T00:48:10;18;16;
70249;PMS5003;57644;48.416;-123.374;2022-08-19T00:50:40;11;11;
70249;PMS5003;57644;48.416;-123.374;2022-08-19T00:53:11;9;9;
70249;PMS5003;57644;48.416;-123.374;2022-08-19T00:55:40;7;7;
70249;PMS5003;57644;48.416;-123.374;2022-08-19T00:58:12;8;8;
70249;PMS5003;57644;48.416;-123.374;2022-08-19T01:00:41;8;7;
70249;PMS5003;57644;48.416;-123.374;2022-08-19T01:03:12;15;12;
70249;PMS5003;57644;48.416;-123.374;2022-08-19T01:05:42;8;8;
70249;PMS5003;57644;48.416;-123.374;2022-08-19T01:08:12;9;8;
70249;PMS5003;57644;48.416;-123.374;2022-08-19T01:10:43;13;13;
70249;PMS5003;57644;48.416;-123.374;2022-08-19T01:13:13;10;9;
70249;PMS5003;57644;48.416;-123.374;2022-08-19T01:15:43;11;10;
70249;PMS5003;57644;48.416;-123.374;2022-08-19T01:18:13;11;11;
70249;PMS5003;57644;48.416;-123.374;2022-08-19T01:20:43;9;9;
70249;PMS5003;57644;48.416;-123.374;2022-08-19T01:23:13;11;10;
70249;PMS5003;57644;48.416;-123.374;2022-08-19T01:25:45;17;12;
70249;PMS5003;57644;48.416;-123.374;2022-08-19T01:28:15;8;8;
70249;PMS5003;57644;48.416;-123.374;2022-08-19T01:30:44;10;10;
70249;PMS5003;57644;48.416;-123.374;2022-08-19T01:33:14;10;9;
70249;PMS5003;57644;48.416;-123.374;2022-08-19T01:35:45;12;12;
70249;PMS5003;57644;48.416;-123.374;2022-08-19T01:38:20;11;11;
70249;PMS5003;57644;48.416;-123.374;2022-08-19T01:40:46;11;10;
70249;PMS5003;57644;48.416;-123.374;2022-08-19T01:43:17;12;12;
70249;PMS5003;57644;48.416;-123.374;2022-08-19T01:45:46;9;9;
70249;PMS5003;57644;48.416;-123.374;2022-08-19T01:48:16;12;10;
70249;PMS5003;57644;48.416;-123.374;2022-08-19T01:50:47;13;12;
70249;PMS5003;57644;48.416;-123.374;2022-08-19T01:53:18;13;12;
70249;PMS5003;57644;48.416;-123.374;2022-08-19T01:55:48;16;14;
70249;PMS5003;57644;48.416;-123.374;2022-08-19T01:58:20;19;18;
70249;PMS5003;57644;48.416;-123.374;2022-08-19T02:00:49;25;23;
70249;PMS5003;57644;48.416;-123.374;2022-08-19T02:03:20;17;16;
70249;PMS5003;57644;48.416;-123.374;2022-08-19T02:05:54;11;10;
70249;PMS5003;57644;48.416;-123.374;2022-08-19T02:08:20;12;12;
70249;PMS5003;57644;48.416;-123.374;2022-08-19T02:10:52;14;14;
70249;PMS5003;57644;48.416;-123.374;2022-08-19T02:13:22;11;11;
70249;PMS5003;57644;48.416;-123.374;2022-08-19T02:15:52;14;13;
70249;PMS5003;57644;48.416;-123.374;2022-08-19T02:18:22;11;10;
70249;PMS5003;57644;48.416;-123.374;2022-08-19T02:20:53;11;11;
70249;PMS5003;57644;48.416;-123.374;2022-08-19T02:23:23;12;12;
70249;PMS5003;57644;48.416;-123.374;2022-08-19T02:25:53;12;12;
70249;PMS5003;57644;48.416;-123.374;2022-08-19T02:28:23;11;11;
70249;PMS5003;57644;48.416;-123.374;2022-08-19T02:30:54;11;11;
70249;PMS5003;57644;48.416;-123.374;2022-08-19T02:33:24;10;9;
70249;PMS5003;57644;48.416;-123.374;2022-08-19T02:35:59;10;10;
70249;PMS5003;57644;48.416;-123.374;2022-08-19T02:38:24;11;11;
70249;PMS5003;57644;48.416;-123.374;2022-08-19T02:40:56;11;11;
70249;PMS5003;57644;48.416;-123.374;2022-08-19T02:43:28;15;14;
70249;PMS5003;57644;48.416;-123.374;2022-08-19T02:45:56;30;27;
70249;PMS5003;57644;48.416;-123.374;2022-08-19T02:48:26;28;26;
70249;PMS5003;57644;48.416;-123.374;2022-08-19T02:50:57;15;14;
70249;PMS5003;57644;48.416;-123.374;2022-08-19T02:53:27;12;12;
70249;PMS5003;57644;48.416;-123.374;2022-08-19T02:55:58;10;10;
70249;PMS5003;57644;48.416;-123.374;2022-08-19T02:58:28;13;13;
70249;PMS5003;57644;48.416;-123.374;2022-08-19T03:00:58;11;11;
70249;PMS5003;57644;48.416;-123.374;2022-08-19T03:03:28;12;12;
70249;PMS5003;57644;48.416;-123.374;2022-08-19T03:08:29;11;11;
70249;PMS5003;57644;48.416;-123.374;2022-08-19T03:11:01;12;12;
70249;PMS5003;57644;48.416;-123.374;2022-08-19T03:13:30;19;17;
70249;PMS5003;57644;48.416;-123.374;2022-08-19T03:16:00;18;16;
70249;PMS5003;57644;48.416;-123.374;2022-08-19T03:18:30;12;12;
70249;PMS5003;57644;48.416;-123.374;2022-08-19T03:21:01;12;11;
70249;PMS5003;57644;48.416;-123.374;2022-08-19T03:23:31;13;13;
70249;PMS5003;57644;48.416;-123.374;2022-08-19T03:26:03;14;13;
70249;PMS5003;57644;48.416;-123.374;2022-08-19T03:28:32;16;15;
70249;PMS5003;57644;48.416;-123.374;2022-08-19T03:31:03;12;11;
70249;PMS5003;57644;48.416;-123.374;2022-08-19T03:33:33;12;12;
70249;PMS5003;57644;48.416;-123.374;2022-08-19T03:36:04;14;14;
70249;PMS5003;57644;48.416;-123.374;2022-08-19T03:38:33;15;15;
70249;PMS5003;57644;48.416;-123.374;2022-08-19T03:41:04;15;14;
70249;PMS5003;57644;48.416;-123.374;2022-08-19T03:43:35;18;16;
70249;PMS5003;57644;48.416;-123.374;2022-08-19T03:46:05;15;15;
70249;PMS5003;57644;48.416;-123.374;2022-08-19T03:48:35;13;13;
70249;PMS5003;57644;48.416;-123.374;2022-08-19T03:51:05;15;13;
70249;PMS5003;57644;48.416;-123.374;2022-08-19T03:53:35;14;13;
70249;PMS5003;57644;48.416;-123.374;2022-08-19T03:56:05;13;13;
70249;PMS5003;57644;48.416;-123.374;2022-08-19T03:58:35;15;15;
70249;PMS5003;57644;48.416;-123.374;2022-08-19T04:01:07;15;15;
70249;PMS5003;57644;48.416;-123.374;2022-08-19T04:03:36;13;13;
70249;PMS5003;57644;48.416;-123.374;2022-08-19T04:06:10;15;15;
70249;PMS5003;57644;48.416;-123.374;2022-08-19T04:08:36;13;13;
70249;PMS5003;57644;48.416;-123.374;2022-08-19T04:11:07;30;27;
70249;PMS5003;57644;48.416;-123.374;2022-08-19T04:13:38;27;27;
70249;PMS5003;57644;48.416;-123.374;2022-08-19T04:16:08;37;36;
70249;PMS5003;57644;48.416;-123.374;2022-08-19T04:18:39;29;27;
70249;PMS5003;57644;48.416;-123.374;2022-08-19T04:21:14;15;15;
70249;PMS5003;57644;48.416;-123.374;2022-08-19T04:23:39;22;21;
70249;PMS5003;57644;48.416;-123.374;2022-08-19T04:26:12;15;15;
70249;PMS5003;57644;48.416;-123.374;2022-08-19T04:28:39;23;23;
70249;PMS5003;57644;48.416;-123.374;2022-08-19T04:31:12;16;15;
70249;PMS5003;57644;48.416;-123.374;2022-08-19T04:33:40;16;16;
70249;PMS5003;57644;48.416;-123.374;2022-08-19T04:36:16;16;16;
70249;PMS5003;57644;48.416;-123.374;2022-08-19T04:38:40;12;12;
70249;PMS5003;57644;48.416;-123.374;2022-08-19T04:41:11;15;15;
70249;PMS5003;57644;48.416;-123.374;2022-08-19T04:43:42;17;16;
70249;PMS5003;57644;48.416;-123.374;2022-08-19T04:46:12;11;11;
70249;PMS5003;57644;48.416;-123.374;2022-08-19T04:48:42;14;13;
70249;PMS5003;57644;48.416;-123.374;2022-08-19T04:51:12;14;14;
70249;PMS5003;57644;48.416;-123.374;2022-08-19T04:53:42;12;12;
70249;PMS5003;57644;48.416;-123.374;2022-08-19T04:56:14;19;18;
70249;PMS5003;57644;48.416;-123.374;2022-08-19T04:58:44;13;12;
70249;PMS5003;57644;48.416;-123.374;2022-08-19T05:01:16;21;21;
70249;PMS5003;57644;48.416;-123.374;2022-08-19T05:03:44;13;13;
70249;PMS5003;57644;48.416;-123.374;2022-08-19T05:06:15;13;13;
70249;PMS5003;57644;48.416;-123.374;2022-08-19T05:08:45;15;13;
70249;PMS5003;57644;48.416;-123.374;2022-08-19T05:11:17;13;13;
70249;PMS5003;57644;48.416;-123.374;2022-08-19T05:13:46;12;12;
70249;PMS5003;57644;48.416;-123.374;2022-08-19T05:16:18;13;13;
70249;PMS5003;57644;48.416;-123.374;2022-08-19T05:18:47;13;13;
70249;PMS5003;57644;48.416;-123.374;2022-08-19T05:21:18;17;17;
70249;PMS5003;57644;48.416;-123.374;2022-08-19T05:23:48;16;16;
70249;PMS5003;57644;48.416;-123.374;2022-08-19T05:26:18;16;16;
70249;PMS5003;57644;48.416;-123.374;2022-08-19T05:28:48;12;12;
70249;PMS5003;57644;48.416;-123.374;2022-08-19T05:31:19;16;16;
70249;PMS5003;57644;48.416;-123.374;2022-08-19T05:33:49;14;14;
70249;PMS5003;57644;48.416;-123.374;2022-08-19T05:36:19;14;14;
70249;PMS5003;57644;48.416;-123.374;2022-08-19T05:38:49;12;12;
70249;PMS5003;57644;48.416;-123.374;2022-08-19T05:41:21;15;15;
70249;PMS5003;57644;48.416;-123.374;2022-08-19T05:43:51;18;17;
70249;PMS5003;57644;48.416;-123.374;2022-08-19T05:46:22;13;13;
70249;PMS5003;57644;48.416;-123.374;2022-08-19T05:48:52;12;12;
70249;PMS5003;57644;48.416;-123.374;2022-08-19T05:51:22;11;11;
70249;PMS5003;57644;48.416;-123.374;2022-08-19T05:53:52;15;14;
70249;PMS5003;57644;48.416;-123.374;2022-08-19T05:56:22;13;13;
70249;PMS5003;57644;48.416;-123.374;2022-08-19T05:58:52;12;12;
70249;PMS5003;57644;48.416;-123.374;2022-08-19T06:01:23;12;12;
70249;PMS5003;57644;48.416;-123.374;2022-08-19T06:03:53;11;11;
70249;PMS5003;57644;48.416;-123.374;2022-08-19T06:06:24;14;14;
70249;PMS5003;57644;48.416;-123.374;2022-08-19T06:08:54;13;13;
70249;PMS5003;57644;48.416;-123.374;2022-08-19T06:11:31;13;13;
70249;PMS5003;57644;48.416;-123.374;2022-08-19T06:13:54;12;12;
70249;PMS5003;57644;48.416;-123.374;2022-08-19T06:16:25;14;14;
70249;PMS5003;57644;48.416;-123.374;2022-08-19T06:18:56;14;14;
70249;PMS5003;57644;48.416;-123.374;2022-08-19T06:21:27;12;12;
70249;PMS5003;57644;48.416;-123.374;2022-08-19T06:23:57;12;12;
70249;PMS5003;57644;48.416;-123.374;2022-08-19T06:26:27;13;12;
70249;PMS5003;57644;48.416;-123.374;2022-08-19T06:28:57;12;12;
70249;PMS5003;57644;48.416;-123.374;2022-08-19T06:31:28;14;13;
70249;PMS5003;57644;48.416;-123.374;2022-08-19T06:33:57;10;10;
70249;PMS5003;57644;48.416;-123.374;2022-08-19T06:36:29;10;10;
70249;PMS5003;57644;48.416;-123.374;2022-08-19T06:38:58;14;14;
70249;PMS5003;57644;48.416;-123.374;2022-08-19T06:41:29;15;13;
70249;PMS5003;57644;48.416;-123.374;2022-08-19T06:44:06;13;12;
70249;PMS5003;57644;48.416;-123.374;2022-08-19T06:46:29;11;11;
70249;PMS5003;57644;48.416;-123.374;2022-08-19T06:49:00;12;12;
70249;PMS5003;57644;48.416;-123.374;2022-08-19T06:51:30;15;15;
70249;PMS5003;57644;48.416;-123.374;2022-08-19T06:54:01;16;15;
70249;PMS5003;57644;48.416;-123.374;2022-08-19T06:56:31;13;13;
70249;PMS5003;57644;48.416;-123.374;2022-08-19T06:59:02;14;14;
70249;PMS5003;57644;48.416;-123.374;2022-08-19T07:01:34;13;13;
70249;PMS5003;57644;48.416;-123.374;2022-08-19T07:04:03;13;13;
70249;PMS5003;57644;48.416;-123.374;2022-08-19T07:06:33;14;13;
70249;PMS5003;57644;48.416;-123.374;2022-08-19T07:09:04;13;12;
70249;PMS5003;57644;48.416;-123.374;2022-08-19T07:11:34;16;15;
70249;PMS5003;57644;48.416;-123.374;2022-08-19T07:14:04;11;11;
70249;PMS5003;57644;48.416;-123.374;2022-08-19T07:16:34;12;12;
70249;PMS5003;57644;48.416;-123.374;2022-08-19T07:19:04;15;15;
70249;PMS5003;57644;48.416;-123.374;2022-08-19T07:21:35;13;13;
70249;PMS5003;57644;48.416;-123.374;2022-08-19T07:24:05;15;15;
70249;PMS5003;57644;48.416;-123.374;2022-08-19T07:26:38;14;14;
70249;PMS5003;57644;48.416;-123.374;2022-08-19T07:29:05;13;12;
70249;PMS5003;57644;48.416;-123.374;2022-08-19T07:31:36;16;16;
70249;PMS5003;57644;48.416;-123.374;2022-08-19T07:34:07;19;16;
70249;PMS5003;57644;48.416;-123.374;2022-08-19T07:36:37;15;14;
70249;PMS5003;57644;48.416;-123.374;2022-08-19T07:39:08;15;15;
70249;PMS5003;57644;48.416;-123.374;2022-08-19T07:41:37;14;14;
70249;PMS5003;57644;48.416;-123.374;2022-08-19T07:44:08;14;14;
70249;PMS5003;57644;48.416;-123.374;2022-08-19T07:46:39;12;11;
70249;PMS5003;57644;48.416;-123.374;2022-08-19T07:49:08;11;11;
70249;PMS5003;57644;48.416;-123.374;2022-08-19T07:51:39;13;12;
70249;PMS5003;57644;48.416;-123.374;2022-08-19T07:54:09;13;13;
70249;PMS5003;57644;48.416;-123.374;2022-08-19T07:56:39;12;11;
70249;PMS5003;57644;48.416;-123.374;2022-08-19T07:59:10;13;12;
70249;PMS5003;57644;48.416;-123.374;2022-08-19T08:01:40;14;14;
70249;PMS5003;57644;48.416;-123.374;2022-08-19T08:04:11;16;15;
70249;PMS5003;57644;48.416;-123.374;2022-08-19T08:06:41;14;13;
70249;PMS5003;57644;48.416;-123.374;2022-08-19T08:09:12;15;15;
70249;PMS5003;57644;48.416;-123.374;2022-08-19T08:11:43;15;15;
70249;PMS5003;57644;48.416;-123.374;2022-08-19T08:14:12;14;14;
70249;PMS5003;57644;48.416;-123.374;2022-08-19T08:16:42;15;14;
70249;PMS5003;57644;48.416;-123.374;2022-08-19T08:19:13;17;16;
70249;PMS5003;57644;48.416;-123.374;2022-08-19T08:21:43;17;16;
70249;PMS5003;57644;48.416;-123.374;2022-08-19T08:24:13;13;13;
70249;PMS5003;57644;48.416;-123.374;2022-08-19T08:26:43;14;14;
70249;PMS5003;57644;48.416;-123.374;2022-08-19T08:29:14;16;16;
70249;PMS5003;57644;48.416;-123.374;2022-08-19T08:31:45;14;12;
70249;PMS5003;57644;48.416;-123.374;2022-08-19T08:34:15;15;14;
70249;PMS5003;57644;48.416;-123.374;2022-08-19T08:36:45;15;14;
70249;PMS5003;57644;48.416;-123.374;2022-08-19T08:39:16;15;15;
70249;PMS5003;57644;48.416;-123.374;2022-08-19T08:41:49;16;15;
70249;PMS5003;57644;48.416;-123.374;2022-08-19T08:44:17;15;15;
70249;PMS5003;57644;48.416;-123.374;2022-08-19T08:46:48;14;14;
70249;PMS5003;57644;48.416;-123.374;2022-08-19T08:49:20;16;15;
70249;PMS5003;57644;48.416;-123.374;2022-08-19T08:51:48;16;15;
70249;PMS5003;57644;48.416;-123.374;2022-08-19T08:54:19;15;14;
70249;PMS5003;57644;48.416;-123.374;2022-08-19T08:56:48;17;17;
70249;PMS5003;57644;48.416;-123.374;2022-08-19T08:59:20;17;16;
70249;PMS5003;57644;48.416;-123.374;2022-08-19T09:01:48;14;14;
70249;PMS5003;57644;48.416;-123.374;2022-08-19T09:04:19;16;16;
70249;PMS5003;57644;48.416;-123.374;2022-08-19T09:06:51;14;13;
70249;PMS5003;57644;48.416;-123.374;2022-08-19T09:09:24;13;13;
70249;PMS5003;57644;48.416;-123.374;2022-08-19T09:11:56;16;16;
70249;PMS5003;57644;48.416;-123.374;2022-08-19T09:14:34;14;14;
70249;PMS5003;57644;48.416;-123.374;2022-08-19T09:16:51;13;13;
70249;PMS5003;57644;48.416;-123.374;2022-08-19T09:19:21;16;16;
70249;PMS5003;57644;48.416;-123.374;2022-08-19T09:21:51;15;15;
70249;PMS5003;57644;48.416;-123.374;2022-08-19T09:24:22;17;16;
70249;PMS5003;57644;48.416;-123.374;2022-08-19T09:26:53;15;15;
70249;PMS5003;57644;48.416;-123.374;2022-08-19T09:29:23;18;17;
70249;PMS5003;57644;48.416;-123.374;2022-08-19T09:31:53;18;17;
70249;PMS5003;57644;48.416;-123.374;2022-08-19T09:34:23;14;14;
70249;PMS5003;57644;48.416;-123.374;2022-08-19T09:36:54;18;17;
70249;PMS5003;57644;48.416;-123.374;2022-08-19T09:39:24;18;17;
70249;PMS5003;57644;48.416;-123.374;2022-08-19T09:41:54;16;16;
70249;PMS5003;57644;48.416;-123.374;2022-08-19T09:44:25;16;16;
70249;PMS5003;57644;48.416;-123.374;2022-08-19T09:46:55;18;17;
70249;PMS5003;57644;48.416;-123.374;2022-08-19T09:49:25;14;14;
70249;PMS5003;57644;48.416;-123.374;2022-08-19T09:51:56;16;15;
70249;PMS5003;57644;48.416;-123.374;2022-08-19T09:54:26;16;15;
70249;PMS5003;57644;48.416;-123.374;2022-08-19T09:56:58;15;15;
70249;PMS5003;57644;48.416;-123.374;2022-08-19T09:59:27;18;17;
70249;PMS5003;57644;48.416;-123.374;2022-08-19T10:01:56;17;15;
70249;PMS5003;57644;48.416;-123.374;2022-08-19T10:04:27;17;17;
70249;PMS5003;57644;48.416;-123.374;2022-08-19T10:06:57;15;14;
70249;PMS5003;57644;48.416;-123.374;2022-08-19T10:09:27;16;16;
70249;PMS5003;57644;48.416;-123.374;2022-08-19T10:11:57;17;16;
70249;PMS5003;57644;48.416;-123.374;2022-08-19T10:14:28;18;18;
70249;PMS5003;57644;48.416;-123.374;2022-08-19T10:16:59;15;15;
70249;PMS5003;57644;48.416;-123.374;2022-08-19T10:19:29;19;18;
70249;PMS5003;57644;48.416;-123.374;2022-08-19T10:22:01;14;14;
70249;PMS5003;57644;48.416;-123.374;2022-08-19T10:24:30;11;10;
70249;PMS5003;57644;48.416;-123.374;2022-08-19T10:27:01;13;12;
70249;PMS5003;57644;48.416;-123.374;2022-08-19T10:29:32;10;10;
70249;PMS5003;57644;48.416;-123.374;2022-08-19T10:32:02;11;11;
70249;PMS5003;57644;48.416;-123.374;2022-08-19T10:34:32;11;9;
70249;PMS5003;57644;48.416;-123.374;2022-08-19T10:37:03;11;11;
70249;PMS5003;57644;48.416;-123.374;2022-08-19T10:39:33;10;9;
70249;PMS5003;57644;48.416;-123.374;2022-08-19T10:42:04;12;12;
70249;PMS5003;57644;48.416;-123.374;2022-08-19T10:44:33;12;12;
70249;PMS5003;57644;48.416;-123.374;2022-08-19T10:47:03;14;14;
70249;PMS5003;57644;48.416;-123.374;2022-08-19T10:49:34;11;11;
70249;PMS5003;57644;48.416;-123.374;2022-08-19T10:52:04;12;12;
70249;PMS5003;57644;48.416;-123.374;2022-08-19T10:54:35;11;11;
70249;PMS5003;57644;48.416;-123.374;2022-08-19T10:57:05;12;12;
70249;PMS5003;57644;48.416;-123.374;2022-08-19T10:59:35;13;12;
70249;PMS5003;57644;48.416;-123.374;2022-08-19T11:02:07;13;13;
70249;PMS5003;57644;48.416;-123.374;2022-08-19T11:04:36;13;12;
70249;PMS5003;57644;48.416;-123.374;2022-08-19T11:07:07;17;16;
70249;PMS5003;57644;48.416;-123.374;2022-08-19T11:09:37;13;13;
70249;PMS5003;57644;48.416;-123.374;2022-08-19T11:12:07;13;13;
70249;PMS5003;57644;48.416;-123.374;2022-08-19T11:14:37;12;12;
70249;PMS5003;57644;48.416;-123.374;2022-08-19T11:17:08;13;13;
70249;PMS5003;57644;48.416;-123.374;2022-08-19T11:19:38;12;12;
70249;PMS5003;57644;48.416;-123.374;2022-08-19T11:22:08;14;14;
70249;PMS5003;57644;48.416;-123.374;2022-08-19T11:24:39;13;12;
70249;PMS5003;57644;48.416;-123.374;2022-08-19T11:27:10;13;13;
70249;PMS5003;57644;48.416;-123.374;2022-08-19T11:29:40;14;14;
70249;PMS5003;57644;48.416;-123.374;2022-08-19T11:32:10;13;13;
70249;PMS5003;57644;48.416;-123.374;2022-08-19T11:34:41;14;14;
70249;PMS5003;57644;48.416;-123.374;2022-08-19T11:37:11;15;15;
70249;PMS5003;57644;48.416;-123.374;2022-08-19T11:39:41;14;14;
70249;PMS5003;57644;48.416;-123.374;2022-08-19T11:42:12;14;13;
70249;PMS5003;57644;48.416;-123.374;2022-08-19T11:44:43;15;15;
70249;PMS5003;57644;48.416;-123.374;2022-08-19T11:47:13;15;15;
70249;PMS5003;57644;48.416;-123.374;2022-08-19T11:49:43;15;15;
70249;PMS5003;57644;48.416;-123.374;2022-08-19T11:52:13;14;14;
70249;PMS5003;57644;48.416;-123.374;2022-08-19T11:54:44;18;16;
70249;PMS5003;57644;48.416;-123.374;2022-08-19T11:57:14;16;16;
70249;PMS5003;57644;48.416;-123.374;2022-08-19T11:59:48;18;17;
70249;PMS5003;57644;48.416;-123.374;2022-08-19T12:02:15;18;17;
70249;PMS5003;57644;48.416;-123.374;2022-08-19T12:04:46;16;16;
70249;PMS5003;57644;48.416;-123.374;2022-08-19T12:07:16;14;14;
70249;PMS5003;57644;48.416;-123.374;2022-08-19T12:09:47;15;15;
70249;PMS5003;57644;48.416;-123.374;2022-08-19T12:12:17;18;17;
70249;PMS5003;57644;48.416;-123.374;2022-08-19T12:14:48;14;14;
70249;PMS5003;57644;48.416;-123.374;2022-08-19T12:17:22;15;14;
70249;PMS5003;57644;48.416;-123.374;2022-08-19T12:19:48;14;14;
70249;PMS5003;57644;48.416;-123.374;2022-08-19T12:22:19;13;13;
70249;PMS5003;57644;48.416;-123.374;2022-08-19T12:24:50;13;13;
70249;PMS5003;57644;48.416;-123.374;2022-08-19T12:27:20;15;14;
70249;PMS5003;57644;48.416;-123.374;2022-08-19T12:29:50;14;13;
70249;PMS5003;57644;48.416;-123.374;2022-08-19T12:32:20;11;11;
70249;PMS5003;57644;48.416;-123.374;2022-08-19T12:34:51;10;10;
70249;PMS5003;57644;48.416;-123.374;2022-08-19T12:37:21;11;10;
70249;PMS5003;57644;48.416;-123.374;2022-08-19T12:39:51;9;8;
70249;PMS5003;57644;48.416;-123.374;2022-08-19T12:42:22;11;10;
70249;PMS5003;57644;48.416;-123.374;2022-08-19T12:44:52;9;9;
70249;PMS5003;57644;48.416;-123.374;2022-08-19T12:47:22;8;8;
70249;PMS5003;57644;48.416;-123.374;2022-08-19T12:49:53;10;9;
70249;PMS5003;57644;48.416;-123.374;2022-08-19T12:52:24;7;7;
70249;PMS5003;57644;48.416;-123.374;2022-08-19T12:54:54;9;9;
70249;PMS5003;57644;48.416;-123.374;2022-08-19T12:57:25;9;8;
70249;PMS5003;57644;48.416;-123.374;2022-08-19T12:59:54;8;8;
70249;PMS5003;57644;48.416;-123.374;2022-08-19T13:02:24;9;9;
70249;PMS5003;57644;48.416;-123.374;2022-08-19T13:04:54;8;8;
70249;PMS5003;57644;48.416;-123.374;2022-08-19T13:07:25;9;8;
70249;PMS5003;57644;48.416;-123.374;2022-08-19T13:09:55;9;9;
70249;PMS5003;57644;48.416;-123.374;2022-08-19T13:12:25;11;11;
70249;PMS5003;57644;48.416;-123.374;2022-08-19T13:14:55;10;9;
70249;PMS5003;57644;48.416;-123.374;2022-08-19T13:17:26;8;8;
70249;PMS5003;57644;48.416;-123.374;2022-08-19T13:19:56;8;8;
70249;PMS5003;57644;48.416;-123.374;2022-08-19T13:22:26;10;10;
70249;PMS5003;57644;48.416;-123.374;2022-08-19T13:24:56;10;10;
70249;PMS5003;57644;48.416;-123.374;2022-08-19T13:27:27;11;11;
70249;PMS5003;57644;48.416;-123.374;2022-08-19T13:29:57;11;11;
70249;PMS5003;57644;48.416;-123.374;2022-08-19T13:32:28;9;9;
70249;PMS5003;57644;48.416;-123.374;2022-08-19T13:34:59;12;12;
70249;PMS5003;57644;48.416;-123.374;2022-08-19T13:37:28;11;11;
70249;PMS5003;57644;48.416;-123.374;2022-08-19T13:39:59;10;10;
70249;PMS5003;57644;48.416;-123.374;2022-08-19T13:42:29;11;11;
70249;PMS5003;57644;48.416;-123.374;2022-08-19T13:45:00;12;10;
70249;PMS5003;57644;48.416;-123.374;2022-08-19T13:47:30;9;9;
70249;PMS5003;57644;48.416;-123.374;2022-08-19T13:50:00;10;10;
70249;PMS5003;57644;48.416;-123.374;2022-08-19T13:52:31;10;10;
70249;PMS5003;57644;48.416;-123.374;2022-08-19T13:55:01;9;9;
70249;PMS5003;57644;48.416;-123.374;2022-08-19T13:57:31;6;6;
70249;PMS5003;57644;48.416;-123.374;2022-08-19T14:00:02;8;8;
70249;PMS5003;57644;48.416;-123.374;2022-08-19T14:02:32;7;7;
70249;PMS5003;57644;48.416;-123.374;2022-08-19T14:05:02;7;7;
70249;PMS5003;57644;48.416;-123.374;2022-08-19T14:07:32;8;8;
70249;PMS5003;57644;48.416;-123.374;2022-08-19T14:10:03;7;7;
70249;PMS5003;57644;48.416;-123.374;2022-08-19T14:12:33;8;8;
70249;PMS5003;57644;48.416;-123.374;2022-08-19T14:15:04;8;8;
70249;PMS5003;57644;48.416;-123.374;2022-08-19T14:17:33;8;8;
70249;PMS5003;57644;48.416;-123.374;2022-08-19T14:20:04;9;9;
70249;PMS5003;57644;48.416;-123.374;2022-08-19T14:22:35;9;9;
70249;PMS5003;57644;48.416;-123.374;2022-08-19T14:25:06;10;10;
70249;PMS5003;57644;48.416;-123.374;2022-08-19T14:27:36;9;9;
70249;PMS5003;57644;48.416;-123.374;2022-08-19T14:30:06;11;10;
70249;PMS5003;57644;48.416;-123.374;2022-08-19T14:32:36;9;9;
70249;PMS5003;57644;48.416;-123.374;2022-08-19T14:35:11;11;11;
70249;PMS5003;57644;48.416;-123.374;2022-08-19T14:37:36;9;8;
70249;PMS5003;57644;48.416;-123.374;2022-08-19T14:40:07;9;9;
70249;PMS5003;57644;48.416;-123.374;2022-08-19T14:42:37;9;9;
70249;PMS5003;57644;48.416;-123.374;2022-08-19T14:45:08;10;10;
70249;PMS5003;57644;48.416;-123.374;2022-08-19T14:47:38;12;12;
70249;PMS5003;57644;48.416;-123.374;2022-08-19T14:50:09;12;11;
70249;PMS5003;57644;48.416;-123.374;2022-08-19T14:52:38;9;9;
70249;PMS5003;57644;48.416;-123.374;2022-08-19T14:55:09;11;10;
70249;PMS5003;57644;48.416;-123.374;2022-08-19T14:57:40;11;11;
70249;PMS5003;57644;48.416;-123.374;2022-08-19T15:00:10;9;9;
70249;PMS5003;57644;48.416;-123.374;2022-08-19T15:02:39;12;12;
70249;PMS5003;57644;48.416;-123.374;2022-08-19T15:05:10;10;10;
70249;PMS5003;57644;48.416;-123.374;2022-08-19T15:07:40;7;7;
70249;PMS5003;57644;48.416;-123.374;2022-08-19T15:10:10;7;6;
70249;PMS5003;57644;48.416;-123.374;2022-08-19T15:12:40;8;6;
70249;PMS5003;57644;48.416;-123.374;2022-08-19T15:15:12;3;3;
70249;PMS5003;57644;48.416;-123.374;2022-08-19T15:17:41;6;6;
70249;PMS5003;57644;48.416;-123.374;2022-08-19T15:20:13;7;5;
70249;PMS5003;57644;48.416;-123.374;2022-08-19T15:22:43;4;4;
70249;PMS5003;57644;48.416;-123.374;2022-08-19T15:25:15;6;5;
70249;PMS5003;57644;48.416;-123.374;2022-08-19T15:27:43;9;9;
70249;PMS5003;57644;48.416;-123.374;2022-08-19T15:30:18;6;6;
70249;PMS5003;57644;48.416;-123.374;2022-08-19T15:32:44;6;5;
70249;PMS5003;57644;48.416;-123.374;2022-08-19T15:35:14;7;6;
70249;PMS5003;57644;48.416;-123.374;2022-08-19T15:37:45;6;6;
70249;PMS5003;57644;48.416;-123.374;2022-08-19T15:40:15;7;6;
70249;PMS5003;57644;48.416;-123.374;2022-08-19T15:42:46;8;6;
70249;PMS5003;57644;48.416;-123.374;2022-08-19T15:45:17;7;7;
70249;PMS5003;57644;48.416;-123.374;2022-08-19T15:47:46;6;5;
70249;PMS5003;57644;48.416;-123.374;2022-08-19T15:50:18;8;8;
70249;PMS5003;57644;48.416;-123.374;2022-08-19T15:52:48;7;7;
70249;PMS5003;57644;48.416;-123.374;2022-08-19T15:55:17;9;9;
70249;PMS5003;57644;48.416;-123.374;2022-08-19T15:57:47;8;8;